Time;durP1;ratioP1;P1;durP2;ratioP2;P2;SDS_P1;SDS_P2;PMS_P1;PMS_P2;Temp;Humidity;BMP_temperature;BMP_pressure;BME280_temperature;BME280_humidity;BME280_pressure;Samples;Min_cycle;Max_cycle;Signal;HPM_P1;HPM_P2
2022/09/18 00:00:43;;;;;;;10.52;1.70;;;13.10;99.90;;;;;;5030118;28;20474;-75
2022/09/18 00:03:09;;;;;;;4.25;1.17;;;13.10;99.90;;;;;;5033152;28;20045;-75
2022/09/18 00:05:36;;;;;;;9.60;1.33;;;13.10;99.90;;;;;;5033098;28;20018;-75
2022/09/18 00:08:02;;;;;;;12.55;1.60;;;13.10;99.90;;;;;;5033649;28;20036;-75
2022/09/18 00:10:28;;;;;;;9.93;1.50;;;13.00;99.90;;;;;;5032803;28;20037;-75
2022/09/18 00:12:54;;;;;;;12.13;1.77;;;13.00;99.90;;;;;;5036484;28;20104;-75
2022/09/18 00:15:20;;;;;;;10.43;1.25;;;13.00;99.90;;;;;;5036397;28;20062;-75
2022/09/18 00:17:45;;;;;;;13.30;1.30;;;13.00;99.90;;;;;;5031946;28;20491;-75
2022/09/18 00:20:11;;;;;;;10.95;1.85;;;13.00;99.90;;;;;;5036757;28;20071;-75
2022/09/18 00:22:36;;;;;;;17.70;2.17;;;13.00;99.90;;;;;;5035139;28;20061;-75
2022/09/18 00:25:02;;;;;;;14.32;1.75;;;13.00;99.90;;;;;;5035285;28;20040;-75
2022/09/18 00:27:28;;;;;;;12.15;1.65;;;13.00;99.90;;;;;;5036320;28;20369;-75
2022/09/18 00:29:53;;;;;;;9.40;1.38;;;13.10;99.90;;;;;;5031551;28;20029;-75
2022/09/18 00:32:19;;;;;;;13.10;1.40;;;13.10;99.90;;;;;;5031362;28;20022;-75
2022/09/18 00:34:44;;;;;;;14.88;1.70;;;13.10;99.90;;;;;;5031510;28;20072;-75
2022/09/18 00:37:10;;;;;;;11.77;1.55;;;13.10;99.90;;;;;;5031311;28;20052;-75
2022/09/18 00:39:35;;;;;;;9.27;1.10;;;13.10;99.90;;;;;;5035481;28;20034;-75
2022/09/18 00:42:01;;;;;;;9.70;1.38;;;13.10;99.90;;;;;;5031733;28;20010;-75
2022/09/18 00:44:44;;;;;;;6.45;0.90;;;13.20;99.90;;;;;;5035898;28;20025;-75
2022/09/18 00:47:10;;;;;;;5.80;0.95;;;13.20;99.90;;;;;;5031473;28;20021;-75
2022/09/18 00:49:38;;;;;;;8.50;1.40;;;13.20;99.90;;;;;;5039886;28;20087;-76
2022/09/18 00:52:05;;;;;;;8.35;1.25;;;13.30;99.90;;;;;;5041460;28;20060;-76
2022/09/18 00:54:38;;;;;;;8.43;1.00;;;13.30;99.90;;;;;;5031867;28;20026;-75
2022/09/18 00:57:09;;;;;;;6.95;1.30;;;13.20;99.90;;;;;;5031978;28;20025;-75
2022/09/18 00:59:37;;;;;;;8.18;0.80;;;13.20;99.90;;;;;;5032824;28;20098;-75
2022/09/18 01:02:03;;;;;;;3.42;0.70;;;13.20;99.90;;;;;;5032144;28;20025;-75
2022/09/18 01:04:29;;;;;;;8.23;1.00;;;13.10;99.90;;;;;;5031906;28;20075;-75
2022/09/18 01:07:07;;;;;;;6.95;1.15;;;13.10;99.90;;;;;;5032020;28;20592;-75
2022/09/18 01:09:41;;;;;;;10.55;1.33;;;13.10;99.90;;;;;;5038443;28;20410;-75
2022/09/18 01:12:20;;;;;;;9.20;1.13;;;13.10;99.90;;;;;;5032109;28;20041;-75
2022/09/18 01:15:20;;;;;;;7.25;1.10;;;13.10;99.90;;;;;;5031496;28;20025;-75
2022/09/18 01:18:10;;;;;;;11.50;1.65;;;13.00;99.90;;;;;;5030894;28;20076;-75
2022/09/18 01:20:57;;;;;;;6.97;1.10;;;13.00;99.90;;;;;;5025144;28;20116;-75
2022/09/18 01:23:28;;;;;;;9.63;1.15;;;13.10;99.90;;;;;;5032389;28;20117;-75
2022/09/18 01:26:00;;;;;;;9.95;1.02;;;13.10;99.90;;;;;;5031516;28;20108;-75
2022/09/18 01:28:51;;;;;;;9.10;1.35;;;13.10;99.90;;;;;;5032032;28;20082;-75
2022/09/18 01:31:29;;;;;;;9.57;1.30;;;13.10;99.90;;;;;;5030991;28;20389;-75
2022/09/18 01:34:23;;;;;;;6.10;1.25;;;13.10;99.90;;;;;;5033206;28;20553;-75
2022/09/18 01:37:00;;;;;;;11.13;1.20;;;13.10;99.90;;;;;;5030760;28;20060;-75
2022/09/18 01:39:39;;;;;;;16.90;1.10;;;13.10;99.90;;;;;;5030796;28;20420;-75
2022/09/18 01:42:07;;;;;;;9.88;0.90;;;13.10;99.90;;;;;;5031820;28;20425;-75
2022/09/18 01:44:34;;;;;;;8.10;1.15;;;13.10;99.90;;;;;;5040097;28;20068;-75
2022/09/18 01:47:04;;;;;;;7.45;1.00;;;13.10;99.90;;;;;;5030193;28;20104;-75
2022/09/18 01:49:37;;;;;;;9.18;1.45;;;13.10;99.90;;;;;;5031021;28;20116;-77
2022/09/18 01:52:43;;;;;;;4.78;0.80;;;13.10;99.90;;;;;;5034420;28;20120;-77
2022/09/18 01:55:15;;;;;;;7.13;1.15;;;13.20;99.90;;;;;;5036038;28;20421;-77
2022/09/18 01:57:59;;;;;;;7.68;1.10;;;13.30;99.90;;;;;;5040156;28;20090;-77
2022/09/18 02:00:25;;;;;;;11.27;1.10;;;13.30;99.90;;;;;;5032018;28;20067;-77
2022/09/18 02:03:04;;;;;;;6.28;0.90;;;13.30;99.90;;;;;;5030780;28;20033;-76
2022/09/18 02:06:00;;;;;;;6.32;1.00;;;13.30;99.90;;;;;;5030711;28;20100;-77
2022/09/18 02:08:40;;;;;;;7.03;1.10;;;13.40;99.90;;;;;;5029375;28;20044;-77
2022/09/18 02:11:12;;;;;;;14.48;1.60;;;13.40;99.90;;;;;;5033903;28;20037;-75
2022/09/18 02:13:56;;;;;;;16.80;1.75;;;13.50;99.90;;;;;;5030254;28;20025;-75
2022/09/18 02:16:28;;;;;;;8.93;1.42;;;13.60;99.90;;;;;;5030306;28;20052;-76
2022/09/18 02:18:56;;;;;;;8.05;1.33;;;13.60;99.90;;;;;;5030178;28;20043;-76
2022/09/18 02:21:29;;;;;;;15.90;1.73;;;13.50;99.90;;;;;;5037284;28;20066;-76
2022/09/18 02:24:01;;;;;;;9.27;1.40;;;13.40;99.90;;;;;;5030232;28;20033;-76
2022/09/18 02:26:28;;;;;;;15.80;1.70;;;13.30;99.90;;;;;;5030299;28;20037;-76
2022/09/18 02:28:55;;;;;;;13.23;1.80;;;13.30;99.90;;;;;;5030099;28;20297;-76
2022/09/18 02:31:21;;;;;;;10.65;1.55;;;13.30;99.90;;;;;;5042416;28;20465;-76
2022/09/18 02:33:47;;;;;;;9.85;1.50;;;13.20;99.90;;;;;;5030421;28;20025;-76
2022/09/18 02:36:28;;;;;;;6.90;1.52;;;13.20;99.90;;;;;;5030306;28;20071;-76
2022/09/18 02:39:03;;;;;;;10.55;1.13;;;13.20;99.90;;;;;;5031785;28;20029;-76
2022/09/18 02:41:54;;;;;;;8.10;1.30;;;13.20;99.90;;;;;;5017207;28;20030;-75
2022/09/18 02:44:41;;;;;;;7.93;1.17;;;13.20;99.90;;;;;;5030477;28;20036;-75
2022/09/18 02:47:31;;;;;;;6.13;1.08;;;13.20;99.90;;;;;;5030339;28;20029;-75
2022/09/18 02:50:17;;;;;;;4.90;1.20;;;13.20;99.90;;;;;;5036978;28;20466;-75
2022/09/18 02:52:42;;;;;;;8.48;1.23;;;13.20;99.90;;;;;;5030095;28;20018;-75
2022/09/18 02:55:25;;;;;;;6.78;0.90;;;13.20;99.90;;;;;;5031034;28;20389;-75
2022/09/18 02:58:05;;;;;;;4.47;0.95;;;13.30;99.90;;;;;;5031110;28;20033;-75
2022/09/18 03:00:32;;;;;;;7.03;0.80;;;13.30;99.90;;;;;;5037919;28;20397;-75
2022/09/18 03:02:58;;;;;;;6.65;1.13;;;13.40;99.90;;;;;;5034067;28;20057;-75
2022/09/18 03:05:25;;;;;;;7.43;1.00;;;13.40;99.90;;;;;;5034290;28;20026;-75
2022/09/18 03:07:51;;;;;;;4.88;0.80;;;13.40;99.90;;;;;;5033987;28;20343;-75
2022/09/18 03:10:17;;;;;;;4.82;1.00;;;13.40;99.90;;;;;;5040983;28;20120;-75
2022/09/18 03:12:42;;;;;;;8.23;1.10;;;13.50;99.90;;;;;;5033806;28;20541;-75
2022/09/18 03:15:09;;;;;;;8.43;1.08;;;13.50;99.90;;;;;;5033984;28;20497;-75
2022/09/18 03:17:35;;;;;;;8.02;0.98;;;13.40;99.90;;;;;;5034172;28;20026;-75
2022/09/18 03:20:02;;;;;;;5.45;0.85;;;13.40;99.90;;;;;;5042956;28;20089;-75
2022/09/18 03:22:28;;;;;;;9.13;1.08;;;13.40;99.90;;;;;;5033978;28;20105;-75
2022/09/18 03:24:53;;;;;;;8.65;0.90;;;13.50;99.90;;;;;;5034176;28;20131;-75
2022/09/18 03:27:19;;;;;;;7.50;1.00;;;13.40;99.90;;;;;;5033512;28;20025;-75
2022/09/18 03:29:44;;;;;;;11.40;0.95;;;13.40;99.90;;;;;;5038536;28;20032;-75
2022/09/18 03:32:11;;;;;;;6.25;1.13;;;13.50;99.90;;;;;;5036781;28;20071;-75
2022/09/18 03:34:37;;;;;;;9.05;1.15;;;13.50;99.90;;;;;;5032162;28;20069;-75
2022/09/18 03:37:03;;;;;;;9.05;0.85;;;13.50;99.90;;;;;;5033420;28;20013;-75
2022/09/18 03:39:29;;;;;;;8.25;1.20;;;13.50;99.90;;;;;;5039402;28;20070;-75
2022/09/18 03:41:54;;;;;;;3.28;0.90;;;13.50;99.90;;;;;;5040553;28;20108;-75
2022/09/18 03:44:20;;;;;;;7.47;1.02;;;13.50;99.90;;;;;;5033356;28;20029;-77
2022/09/18 03:46:45;;;;;;;6.55;0.90;;;13.50;99.90;;;;;;5033500;28;20024;-77
2022/09/18 03:49:11;;;;;;;6.95;1.10;;;13.50;99.90;;;;;;5033232;28;20029;-77
2022/09/18 03:51:37;;;;;;;9.25;0.95;;;13.50;99.90;;;;;;5033356;28;20290;-77
2022/09/18 03:54:02;;;;;;;7.45;1.30;;;13.50;99.90;;;;;;5033683;28;20037;-77
2022/09/18 03:56:28;;;;;;;13.65;1.40;;;13.50;99.90;;;;;;5033102;28;20022;-77
2022/09/18 03:58:54;;;;;;;10.85;1.13;;;13.40;99.90;;;;;;5033234;28;20034;-77
2022/09/18 04:01:19;;;;;;;11.95;1.88;;;13.40;99.90;;;;;;5033238;28;20055;-77
2022/09/18 04:03:46;;;;;;;11.88;1.25;;;13.40;99.90;;;;;;5033275;28;20060;-77
2022/09/18 04:06:11;;;;;;;11.77;1.55;;;13.40;99.90;;;;;;5033254;28;20105;-77
2022/09/18 04:08:37;;;;;;;4.75;0.80;;;13.40;99.90;;;;;;5037514;28;20100;-77
2022/09/18 04:11:04;;;;;;;9.30;1.77;;;13.40;99.90;;;;;;5034904;28;20037;-77
2022/09/18 04:13:30;;;;;;;6.15;1.10;;;13.30;99.90;;;;;;5029868;28;20039;-77
2022/09/18 04:15:56;;;;;;;6.03;1.23;;;13.30;99.90;;;;;;5032862;28;20025;-77
2022/09/18 04:18:24;;;;;;;11.27;1.58;;;13.30;99.90;;;;;;5032786;28;20066;-75
2022/09/18 04:20:50;;;;;;;9.18;1.30;;;13.20;99.90;;;;;;5041240;28;20072;-74
2022/09/18 04:23:16;;;;;;;7.57;1.00;;;13.20;99.90;;;;;;5032708;28;20053;-74
2022/09/18 04:25:42;;;;;;;7.47;1.13;;;13.20;99.90;;;;;;5032387;28;20397;-75
2022/09/18 04:28:09;;;;;;;6.68;0.95;;;13.20;99.90;;;;;;5032643;28;20022;-75
2022/09/18 04:30:36;;;;;;;6.82;0.85;;;13.30;99.90;;;;;;5045490;28;20025;-75
2022/09/18 04:33:02;;;;;;;7.97;1.05;;;13.30;99.90;;;;;;5032658;28;20133;-75
2022/09/18 04:35:27;;;;;;;7.38;0.95;;;13.30;99.90;;;;;;5034536;28;20029;-75
2022/09/18 04:37:53;;;;;;;9.30;1.05;;;13.20;99.90;;;;;;5032460;28;20148;-75
2022/09/18 04:40:19;;;;;;;7.28;0.90;;;13.30;99.90;;;;;;5034896;28;20037;-75
2022/09/18 04:42:44;;;;;;;8.82;1.17;;;13.30;99.90;;;;;;5032889;28;20025;-75
2022/09/18 04:45:10;;;;;;;8.20;1.10;;;13.30;99.90;;;;;;5032367;28;20029;-75
2022/09/18 04:47:36;;;;;;;7.95;0.93;;;13.30;99.90;;;;;;5032882;28;20028;-76
2022/09/18 04:50:02;;;;;;;5.07;0.88;;;13.30;99.90;;;;;;5042185;28;20054;-75
2022/09/18 04:52:28;;;;;;;6.10;1.00;;;13.30;99.90;;;;;;5033983;28;20036;-75
2022/09/18 04:54:57;;;;;;;5.10;0.98;;;13.30;99.90;;;;;;5033125;28;20022;-75
2022/09/18 04:57:22;;;;;;;4.05;0.95;;;13.20;99.90;;;;;;5032534;28;20040;-75
2022/09/18 04:59:48;;;;;;;5.60;0.75;;;13.10;99.90;;;;;;5033592;28;20033;-75
2022/09/18 05:02:13;;;;;;;6.00;0.80;;;13.10;99.90;;;;;;5032158;28;20030;-75
2022/09/18 05:04:39;;;;;;;6.72;0.80;;;13.10;99.90;;;;;;5032366;28;20104;-75
2022/09/18 05:07:05;;;;;;;10.23;1.23;;;13.10;99.90;;;;;;5032197;28;20022;-75
2022/09/18 05:09:31;;;;;;;7.45;0.80;;;13.10;99.90;;;;;;5037166;28;20435;-75
2022/09/18 05:11:57;;;;;;;5.43;0.93;;;13.10;99.90;;;;;;5041368;28;20082;-75
2022/09/18 05:14:22;;;;;;;6.15;0.90;;;13.10;99.90;;;;;;5037469;28;20507;-75
2022/09/18 05:16:48;;;;;;;11.55;1.30;;;13.10;99.90;;;;;;5035663;28;20381;-75
2022/09/18 05:19:13;;;;;;;8.07;0.88;;;13.10;99.90;;;;;;5039273;28;20029;-75
2022/09/18 05:21:39;;;;;;;6.10;0.90;;;13.10;99.90;;;;;;5030586;28;20520;-75
2022/09/18 05:24:04;;;;;;;8.93;0.98;;;13.10;99.90;;;;;;5039834;28;20052;-74
2022/09/18 05:26:30;;;;;;;8.90;1.15;;;13.20;99.90;;;;;;5031593;28;20026;-75
2022/09/18 05:28:56;;;;;;;9.20;1.13;;;13.20;99.90;;;;;;5038678;28;20064;-75
2022/09/18 05:31:25;;;;;;;9.88;0.93;;;13.20;99.90;;;;;;5031562;28;20113;-75
2022/09/18 05:33:50;;;;;;;8.15;0.90;;;13.10;99.90;;;;;;5031513;28;20091;-75
2022/09/18 05:36:16;;;;;;;13.95;1.50;;;13.20;99.90;;;;;;5031564;28;20458;-75
2022/09/18 05:38:41;;;;;;;4.88;0.80;;;13.20;99.90;;;;;;5031192;28;20438;-75
2022/09/18 05:41:08;;;;;;;7.05;0.88;;;13.20;99.90;;;;;;5031289;28;20017;-74
2022/09/18 05:43:34;;;;;;;7.43;0.88;;;13.20;99.90;;;;;;5030035;28;20025;-75
2022/09/18 05:46:01;;;;;;;8.55;1.27;;;13.20;99.90;;;;;;5031204;28;20022;-75
2022/09/18 05:48:26;;;;;;;6.72;1.20;;;13.20;99.90;;;;;;5037293;28;20032;-74
2022/09/18 05:50:52;;;;;;;5.82;1.17;;;13.20;99.90;;;;;;5038756;28;20401;-74
2022/09/18 05:53:20;;;;;;;6.50;0.90;;;13.20;99.90;;;;;;5031479;28;20053;-75
2022/09/18 05:55:46;;;;;;;6.05;1.20;;;13.20;99.90;;;;;;5031106;28;20021;-75
2022/09/18 05:58:15;;;;;;;11.13;1.27;;;13.20;99.90;;;;;;5030997;28;20075;-75
2022/09/18 06:00:43;;;;;;;6.72;0.77;;;13.20;99.90;;;;;;5030927;28;20210;-74
2022/09/18 06:03:11;;;;;;;7.47;1.00;;;13.30;99.90;;;;;;5035961;28;20028;-74
2022/09/18 06:05:37;;;;;;;8.02;1.00;;;13.30;99.90;;;;;;5030619;28;20061;-75
2022/09/18 06:08:05;;;;;;;8.75;1.08;;;13.30;99.90;;;;;;5031877;28;20028;-74
2022/09/18 06:10:32;;;;;;;6.05;0.93;;;13.40;99.90;;;;;;5030739;28;20037;-76
2022/09/18 06:13:08;;;;;;;7.28;1.08;;;13.40;99.90;;;;;;5031233;28;20045;-77
2022/09/18 06:15:37;;;;;;;5.20;0.95;;;13.40;99.90;;;;;;5031307;28;20025;-77
2022/09/18 06:18:05;;;;;;;8.52;1.40;;;13.50;99.90;;;;;;5030458;28;20108;-76
2022/09/18 06:20:31;;;;;;;5.22;1.05;;;13.50;99.90;;;;;;5030739;28;20025;-76
2022/09/18 06:23:00;;;;;;;11.05;1.17;;;13.60;99.90;;;;;;5030562;28;20087;-77
2022/09/18 06:25:29;;;;;;;9.88;1.35;;;13.60;99.90;;;;;;5033437;28;20224;-76
2022/09/18 06:27:59;;;;;;;6.35;1.02;;;13.60;99.90;;;;;;5041182;28;20536;-76
2022/09/18 06:30:26;;;;;;;7.90;0.77;;;13.60;99.90;;;;;;5037012;28;20467;-77
2022/09/18 06:32:52;;;;;;;4.78;0.98;;;13.70;99.90;;;;;;5036918;28;20045;-77
2022/09/18 06:35:18;;;;;;;4.63;0.95;;;13.70;99.90;;;;;;5044983;28;20010;-76
2022/09/18 06:37:44;;;;;;;4.32;0.82;;;13.70;99.90;;;;;;5047154;28;20040;-76
2022/09/18 06:40:10;;;;;;;3.92;0.90;;;13.80;99.90;;;;;;5044098;28;20115;-76
2022/09/18 06:42:35;;;;;;;8.55;1.08;;;13.80;99.90;;;;;;5041785;28;20424;-77
2022/09/18 06:45:01;;;;;;;12.95;1.40;;;13.90;99.90;;;;;;5041980;28;20104;-77
2022/09/18 06:47:26;;;;;;;5.13;1.00;;;13.90;99.90;;;;;;5035708;28;20025;-76
2022/09/18 06:49:52;;;;;;;6.97;1.20;;;14.00;99.90;;;;;;5042238;28;20021;-77
2022/09/18 06:52:18;;;;;;;16.75;2.25;;;14.00;99.90;;;;;;5044526;28;20032;-77
2022/09/18 06:54:43;;;;;;;11.50;1.75;;;14.00;99.90;;;;;;5041453;28;20075;-77
2022/09/18 06:57:09;;;;;;;9.93;1.77;;;14.00;99.90;;;;;;5038652;28;20148;-78
2022/09/18 06:59:36;;;;;;;11.07;1.42;;;14.00;99.90;;;;;;5041563;28;20102;-78
2022/09/18 07:02:02;;;;;;;11.95;1.50;;;13.90;99.90;;;;;;5034046;28;20034;-80
2022/09/18 07:04:27;;;;;;;12.45;1.77;;;14.00;99.90;;;;;;5031512;28;20018;-79
2022/09/18 07:06:53;;;;;;;14.50;1.63;;;13.90;99.90;;;;;;5043115;28;20100;-79
2022/09/18 07:09:18;;;;;;;13.75;1.77;;;13.90;99.90;;;;;;5040101;28;20095;-78
2022/09/18 07:11:47;;;;;;;9.75;1.38;;;13.90;99.90;;;;;;5040980;28;20025;-78
2022/09/18 07:14:13;;;;;;;13.18;1.75;;;13.90;99.90;;;;;;5042980;28;20017;-78
2022/09/18 07:16:38;;;;;;;8.00;1.15;;;13.90;99.90;;;;;;5043555;28;20017;-78
2022/09/18 07:19:05;;;;;;;8.07;1.40;;;13.90;99.90;;;;;;5040051;28;20071;-78
2022/09/18 07:21:31;;;;;;;10.30;1.40;;;14.00;99.90;;;;;;5035533;28;20064;-78
2022/09/18 07:23:56;;;;;;;10.20;1.45;;;14.00;99.90;;;;;;5039356;28;20091;-78
2022/09/18 07:26:22;;;;;;;13.32;2.00;;;14.00;99.90;;;;;;5042094;28;20037;-76
2022/09/18 07:28:48;;;;;;;11.07;1.50;;;14.00;99.90;;;;;;5045689;28;20071;-77
2022/09/18 07:31:13;;;;;;;8.63;1.40;;;14.00;99.90;;;;;;5040408;28;20593;-77
2022/09/18 07:33:42;;;;;;;11.85;1.17;;;13.90;99.90;;;;;;5042905;28;20225;-76
2022/09/18 07:36:07;;;;;;;8.05;1.25;;;13.90;99.90;;;;;;5042231;28;20159;-76
2022/09/18 07:38:33;;;;;;;4.10;0.80;;;13.80;99.90;;;;;;5043926;28;20104;-76
2022/09/18 07:41:03;;;;;;;7.47;1.20;;;13.80;99.90;;;;;;5043003;28;20591;-76
2022/09/18 07:43:29;;;;;;;8.88;1.35;;;13.70;99.90;;;;;;5041568;28;20147;-77
2022/09/18 07:45:55;;;;;;;7.95;1.38;;;13.60;99.90;;;;;;5048616;28;20377;-76
2022/09/18 07:48:22;;;;;;;8.20;1.10;;;13.50;99.90;;;;;;5046075;28;20032;-75
2022/09/18 07:50:47;;;;;;;5.50;1.08;;;13.40;99.90;;;;;;5046293;28;20083;-78
2022/09/18 07:53:13;;;;;;;8.07;1.17;;;13.30;99.90;;;;;;5036437;28;20529;-79
2022/09/18 07:55:41;;;;;;;10.60;1.33;;;13.30;99.90;;;;;;5048958;28;20028;-79
2022/09/18 07:58:12;;;;;;;6.90;1.13;;;13.30;99.90;;;;;;5038535;28;20005;-80
2022/09/18 08:00:38;;;;;;;9.63;1.40;;;13.30;99.90;;;;;;5032472;28;20036;-79
2022/09/18 08:03:10;;;;;;;13.80;2.65;;;13.40;99.90;;;;;;5035816;28;20029;-77
2022/09/18 08:05:36;;;;;;;13.75;1.73;;;13.40;99.90;;;;;;5037124;28;20789;-78
2022/09/18 08:08:13;;;;;;;10.88;1.85;;;13.30;99.90;;;;;;5045353;28;20028;-78
2022/09/18 08:10:41;;;;;;;10.18;1.70;;;13.30;99.90;;;;;;5038341;28;20021;-78
2022/09/18 08:13:07;;;;;;;12.50;2.38;;;13.20;99.90;;;;;;5042915;28;20501;-77
2022/09/18 08:15:35;;;;;;;17.20;2.35;;;13.20;99.90;;;;;;5042788;28;20024;-78
2022/09/18 08:18:01;;;;;;;10.35;1.55;;;13.20;99.90;;;;;;5039816;28;20033;-78
2022/09/18 08:20:27;;;;;;;13.85;1.70;;;13.20;99.90;;;;;;5034604;28;20381;-78
2022/09/18 08:22:52;;;;;;;7.22;1.20;;;13.30;99.90;;;;;;5042332;28;20033;-78
2022/09/18 08:25:19;;;;;;;16.10;1.40;;;13.40;99.90;;;;;;5032983;28;20071;-78
2022/09/18 08:27:45;;;;;;;10.98;1.50;;;13.40;99.90;;;;;;5045170;28;20023;-79
2022/09/18 08:30:13;;;;;;;11.70;1.63;;;13.50;99.90;;;;;;5047132;28;20119;-79
2022/09/18 08:32:38;;;;;;;10.43;1.45;;;13.50;99.90;;;;;;5049149;28;20336;-79
2022/09/18 08:35:05;;;;;;;11.10;1.90;;;13.60;99.90;;;;;;5040642;28;20092;-78
2022/09/18 08:37:32;;;;;;;16.20;1.90;;;13.60;99.90;;;;;;5032396;28;20137;-79
2022/09/18 08:39:58;;;;;;;13.25;2.00;;;13.70;99.90;;;;;;5038770;28;20041;-80
2022/09/18 08:42:59;;;;;;;8.43;1.35;;;13.80;99.90;;;;;;5036195;28;20536;-78
2022/09/18 08:45:44;;;;;;;9.02;1.10;;;13.80;99.90;;;;;;5039668;28;20511;-79
2022/09/18 08:48:22;;;;;;;6.45;1.20;;;13.90;99.90;;;;;;5024324;28;20113;-79
2022/09/18 08:51:17;;;;;;;12.05;1.58;;;14.00;99.90;;;;;;5039112;28;20379;-79
2022/09/18 08:53:49;;;;;;;7.60;0.80;;;14.00;99.90;;;;;;5031917;28;20045;-79
2022/09/18 08:56:19;;;;;;;8.60;0.90;;;14.00;99.90;;;;;;5032528;28;20045;-79
2022/09/18 08:58:57;;;;;;;4.70;0.73;;;14.10;99.90;;;;;;5039532;28;20070;-80
2022/09/18 09:01:34;;;;;;;3.15;0.80;;;14.10;99.90;;;;;;5036860;28;20040;-79
2022/09/18 09:04:23;;;;;;;4.07;0.70;;;14.10;99.90;;;;;;5031453;28;20079;-79
2022/09/18 09:07:21;;;;;;;4.13;0.85;;;14.10;99.90;;;;;;5031669;28;20018;-80
2022/09/18 09:10:06;;;;;;;6.28;0.70;;;14.20;99.90;;;;;;5036329;28;20028;-81
2022/09/18 09:12:44;;;;;;;5.30;0.63;;;14.20;99.90;;;;;;5044773;28;20421;-78
2022/09/18 09:15:32;;;;;;;6.43;0.82;;;14.30;99.90;;;;;;5040157;28;20424;-78
2022/09/18 09:18:17;;;;;;;5.93;1.10;;;14.30;99.90;;;;;;5031772;28;20522;-78
2022/09/18 09:20:56;;;;;;;7.88;0.80;;;14.40;99.90;;;;;;5030743;28;20107;-78
2022/09/18 09:23:51;;;;;;;4.32;0.80;;;14.50;99.90;;;;;;5031523;28;20045;-78
2022/09/18 09:26:21;;;;;;;5.80;1.10;;;14.60;99.90;;;;;;5026164;28;20076;-78
2022/09/18 09:29:15;;;;;;;4.43;0.82;;;14.60;99.90;;;;;;5043244;28;20485;-78
2022/09/18 09:31:45;;;;;;;9.25;1.17;;;14.70;99.90;;;;;;5031037;28;20192;-79
2022/09/18 09:34:23;;;;;;;9.63;1.80;;;14.70;99.90;;;;;;5029614;28;20029;-78
2022/09/18 09:36:51;;;;;;;7.53;1.20;;;14.80;99.90;;;;;;5032604;28;20025;-78
2022/09/18 09:39:26;;;;;;;9.02;0.93;;;14.80;99.90;;;;;;5040853;28;20030;-78
2022/09/18 09:42:10;;;;;;;7.70;0.98;;;14.70;99.90;;;;;;5031726;28;20083;-78
2022/09/18 09:44:42;;;;;;;7.65;1.23;;;14.60;99.90;;;;;;5028990;28;20095;-77
2022/09/18 09:47:37;;;;;;;8.63;1.00;;;14.50;99.90;;;;;;5032342;28;20025;-77
2022/09/18 09:50:05;;;;;;;8.75;0.95;;;14.40;99.90;;;;;;5031511;28;20053;-78
2022/09/18 09:52:31;;;;;;;11.23;1.13;;;14.30;99.90;;;;;;5031855;28;20044;-77
2022/09/18 09:55:23;;;;;;;9.95;1.02;;;14.20;99.90;;;;;;5031829;28;20017;-76
2022/09/18 09:57:52;;;;;;;8.82;0.98;;;14.10;99.90;;;;;;5036774;28;20109;-77
2022/09/18 10:00:19;;;;;;;8.60;1.10;;;14.00;99.90;;;;;;5041981;28;20028;-78
2022/09/18 10:03:23;;;;;;;6.97;0.90;;;14.00;99.90;;;;;;5041071;28;20068;-78
2022/09/18 10:05:54;;;;;;;6.05;1.23;;;14.00;99.90;;;;;;5017914;28;20034;-77
2022/09/18 10:08:30;;;;;;;8.50;0.98;;;14.00;99.90;;;;;;5034134;28;20025;-78
2022/09/18 10:10:58;;;;;;;6.00;1.05;;;14.10;99.90;;;;;;5039024;28;20460;-78
2022/09/18 10:13:28;;;;;;;10.75;1.58;;;14.10;99.90;;;;;;5031423;28;20473;-75
2022/09/18 10:16:15;;;;;;;10.48;1.17;;;14.10;99.90;;;;;;5037792;28;20112;-75
2022/09/18 10:18:44;;;;;;;8.63;1.10;;;14.20;99.90;;;;;;5033056;28;20029;-77
2022/09/18 10:21:22;;;;;;;8.32;1.40;;;14.30;99.90;;;;;;5031611;28;20505;-78
2022/09/18 10:24:29;;;;;;;5.97;1.10;;;14.30;99.90;;;;;;5041575;28;20428;-78
2022/09/18 10:26:57;;;;;;;7.00;1.30;;;14.40;99.90;;;;;;5030637;28;20021;-78
2022/09/18 10:29:23;;;;;;;8.32;1.48;;;14.50;99.90;;;;;;5031799;28;20013;-78
2022/09/18 10:31:57;;;;;;;3.95;0.82;;;14.50;99.90;;;;;;5030594;28;20068;-78
2022/09/18 10:34:33;;;;;;;5.60;1.30;;;14.60;99.90;;;;;;5032983;28;20032;-78
2022/09/18 10:36:59;;;;;;;8.32;1.00;;;14.60;99.90;;;;;;5017940;28;20512;-77
2022/09/18 10:39:31;;;;;;;6.25;0.90;;;14.60;99.90;;;;;;5035367;28;20036;-77
2022/09/18 10:42:04;;;;;;;9.82;1.33;;;14.70;99.90;;;;;;5033521;28;20033;-77
2022/09/18 10:44:42;;;;;;;8.75;1.20;;;14.80;99.90;;;;;;5032530;28;20048;-78
2022/09/18 10:47:07;;;;;;;8.00;1.27;;;14.80;99.90;;;;;;5043663;28;20036;-77
2022/09/18 10:49:57;;;;;;;11.70;1.30;;;14.70;99.90;;;;;;5038381;28;20032;-78
2022/09/18 10:52:27;;;;;;;12.77;1.92;;;14.60;99.90;;;;;;5041254;28;20033;-78
2022/09/18 10:55:00;;;;;;;12.02;1.70;;;14.40;99.90;;;;;;5036237;28;20029;-77
2022/09/18 10:57:30;;;;;;;6.80;1.42;;;14.30;99.90;;;;;;5039039;28;20423;-77
2022/09/18 10:59:55;;;;;;;9.13;1.10;;;14.30;99.90;;;;;;5027988;28;20029;-78
2022/09/18 11:02:25;;;;;;;7.60;1.00;;;14.20;99.90;;;;;;5035416;28;20396;-78
2022/09/18 11:04:52;;;;;;;7.80;1.00;;;14.10;99.90;;;;;;5040735;28;20052;-78
2022/09/18 11:07:18;;;;;;;6.75;1.00;;;13.90;99.90;;;;;;5025935;28;20032;-78
2022/09/18 11:09:45;;;;;;;5.78;1.13;;;13.80;99.90;;;;;;5030500;28;20030;-78
2022/09/18 11:12:23;;;;;;;8.93;1.58;;;13.80;99.90;;;;;;5030276;28;20014;-79
2022/09/18 11:15:01;;;;;;;8.35;1.27;;;13.80;99.90;;;;;;5031104;28;20152;-79
2022/09/18 11:17:30;;;;;;;9.93;1.33;;;13.80;99.90;;;;;;5015443;28;20045;-78
2022/09/18 11:20:00;;;;;;;9.48;1.00;;;13.80;99.90;;;;;;5029699;28;20306;-79
2022/09/18 11:22:41;;;;;;;9.02;1.30;;;13.90;99.90;;;;;;5033976;28;20386;-79
2022/09/18 11:25:23;;;;;;;10.48;1.10;;;13.90;99.90;;;;;;5034858;28;20072;-76
2022/09/18 11:27:55;;;;;;;9.75;1.20;;;13.90;99.90;;;;;;5039818;28;20026;-78
2022/09/18 11:30:25;;;;;;;7.60;1.38;;;13.90;99.90;;;;;;5040789;28;20017;-78
2022/09/18 11:33:13;;;;;;;7.40;1.10;;;13.80;99.90;;;;;;5046503;28;20033;-78
2022/09/18 11:35:44;;;;;;;9.88;1.25;;;13.80;99.90;;;;;;5042613;28;20030;-78
2022/09/18 11:38:15;;;;;;;6.60;1.52;;;13.80;99.90;;;;;;5033831;28;20026;-79
2022/09/18 11:40:44;;;;;;;10.07;1.20;;;13.80;99.90;;;;;;5033332;28;20115;-78
2022/09/18 11:43:33;;;;;;;10.52;1.27;;;13.80;99.90;;;;;;5033398;28;20032;-79
2022/09/18 11:46:26;;;;;;;7.18;1.42;;;13.80;99.90;;;;;;5033582;28;20500;-78
2022/09/18 11:49:02;;;;;;;7.72;1.25;;;13.80;99.90;;;;;;5038501;28;20029;-79
2022/09/18 11:51:52;;;;;;;7.03;1.38;;;13.80;99.90;;;;;;5041896;28;20041;-78
2022/09/18 11:54:43;;;;;;;8.82;1.40;;;13.90;99.90;;;;;;5044596;28;20021;-79
2022/09/18 11:57:36;;;;;;;8.50;1.10;;;13.90;99.90;;;;;;5044819;28;20553;-80
2022/09/18 12:00:22;;;;;;;11.63;1.50;;;14.00;99.90;;;;;;5038628;28;20033;-79
2022/09/18 12:03:13;;;;;;;9.05;1.83;;;14.00;99.90;;;;;;5048150;28;20042;-80
2022/09/18 12:05:38;;;;;;;10.27;1.73;;;14.10;99.90;;;;;;5037926;28;20094;-79
2022/09/18 12:08:35;;;;;;;13.55;1.80;;;14.10;99.90;;;;;;5035105;28;20013;-80
2022/09/18 12:11:31;;;;;;;8.77;1.60;;;14.20;99.90;;;;;;5041773;28;20045;-80
2022/09/18 12:14:00;;;;;;;12.25;1.73;;;14.20;99.90;;;;;;5040876;28;20052;-79
2022/09/18 12:16:42;;;;;;;11.40;1.70;;;14.20;99.90;;;;;;5042404;28;20025;-79
2022/09/18 12:19:36;;;;;;;10.95;1.60;;;14.20;99.90;;;;;;5040741;28;20377;-79
2022/09/18 12:22:09;;;;;;;12.65;1.80;;;14.30;99.90;;;;;;5040491;28;20060;-79
2022/09/18 12:24:35;;;;;;;9.13;1.55;;;14.30;99.90;;;;;;5039985;28;20049;-79
2022/09/18 12:27:15;;;;;;;11.35;1.92;;;14.40;99.90;;;;;;5038647;28;20091;-79
2022/09/18 12:29:41;;;;;;;9.05;1.45;;;14.40;99.90;;;;;;5040235;28;20021;-79
2022/09/18 12:32:29;;;;;;;11.25;1.65;;;14.50;99.90;;;;;;5041162;28;20025;-79
2022/09/18 12:35:27;;;;;;;5.88;1.17;;;14.50;99.90;;;;;;5039265;28;20088;-79
2022/09/18 12:38:34;;;;;;;8.70;1.30;;;14.50;99.90;;;;;;5038295;28;20031;-79
2022/09/18 12:41:06;;;;;;;8.13;1.08;;;14.50;99.90;;;;;;5009374;28;20565;-79
2022/09/18 12:43:53;;;;;;;8.40;1.20;;;14.50;99.90;;;;;;5007694;28;20145;-78
2022/09/18 12:46:35;;;;;;;5.40;1.13;;;14.40;99.90;;;;;;5004094;28;20041;-75
2022/09/18 12:49:08;;;;;;;9.23;1.50;;;14.30;99.90;;;;;;5008849;28;20585;-77
2022/09/18 12:51:46;;;;;;;5.88;0.98;;;14.10;99.90;;;;;;5010607;28;20049;-77
2022/09/18 12:54:35;;;;;;;9.45;1.55;;;14.00;99.90;;;;;;5008821;28;20029;-77
2022/09/18 12:57:54;;;;;;;11.07;1.40;;;13.80;99.90;;;;;;5007531;28;20581;-76
2022/09/18 13:00:21;;;;;;;9.07;1.33;;;13.80;99.90;;;;;;4966179;28;20093;-77
2022/09/18 13:03:05;;;;;;;9.93;1.30;;;13.60;99.90;;;;;;4969407;28;20541;-77
2022/09/18 13:05:59;;;;;;;11.10;1.42;;;13.60;99.90;;;;;;4971058;28;20475;-77
2022/09/18 13:08:42;;;;;;;7.00;1.70;;;13.50;99.90;;;;;;4959330;28;20046;-79